Riviere-du-Loup, Canada
Current Conditions -  °F | °C
As of 12:14 PM on Thursday 18 Dec 2014 (Local Time) from KFVE Reporting Station
Light Snow Light Snow  
Wind Chill:   Ceiling: 1600
Heat Index: 24°   Visibility: 1mi
Dew Point: 21°   Wind: 24mph
Humidity: 88%   Direction: 340°NNW
Pressure: 29.54"   Gusts: 32mph
Location:  47.84°N, 69.54°W
Report Text: KFVE 181714Z AUTO 34021G28KT 1SM -SN BR VV016 M04/M06 A2954 RMK AO2 PK WND 34029/1655 P0000 T10441061
Loading
Personal Weather Stations






























Interactive Weather Map New forecast layout! Learn more

10-Day Weather Forecast

Advertisements
Track Severe Weather on mobile